sensor_id;sensor_type;location;lat;lon;timestamp;P1;durP1;ratioP1;P2;durP2;ratioP2
7703;SDS011;3894;49.700;10.770;2022-12-10T00:01:21;29.33;;;11.05;;
7703;SDS011;3894;49.700;10.770;2022-12-10T00:03:48;27.60;;;11.60;;
7703;SDS011;3894;49.700;10.770;2022-12-10T00:06:15;30.55;;;14.70;;
7703;SDS011;3894;49.700;10.770;2022-12-10T00:08:42;33.33;;;12.75;;
7703;SDS011;3894;49.700;10.770;2022-12-10T00:11:09;35.97;;;13.70;;
7703;SDS011;3894;49.700;10.770;2022-12-10T00:13:36;27.45;;;9.90;;
7703;SDS011;3894;49.700;10.770;2022-12-10T00:16:02;27.77;;;11.25;;
7703;SDS011;3894;49.700;10.770;2022-12-10T00:18:30;26.85;;;10.45;;
7703;SDS011;3894;49.700;10.770;2022-12-10T00:20:56;21.65;;;9.38;;
7703;SDS011;3894;49.700;10.770;2022-12-10T00:23:22;28.55;;;11.30;;
7703;SDS011;3894;49.700;10.770;2022-12-10T00:25:48;24.17;;;10.65;;
7703;SDS011;3894;49.700;10.770;2022-12-10T00:28:13;19.73;;;8.75;;
7703;SDS011;3894;49.700;10.770;2022-12-10T00:30:39;24.90;;;9.90;;
7703;SDS011;3894;49.700;10.770;2022-12-10T00:33:04;22.73;;;9.98;;
7703;SDS011;3894;49.700;10.770;2022-12-10T00:35:30;19.58;;;9.13;;
7703;SDS011;3894;49.700;10.770;2022-12-10T00:37:56;23.85;;;9.30;;
7703;SDS011;3894;49.700;10.770;2022-12-10T00:40:21;20.73;;;9.45;;
7703;SDS011;3894;49.700;10.770;2022-12-10T00:42:47;19.52;;;9.25;;
7703;SDS011;3894;49.700;10.770;2022-12-10T00:45:13;21.58;;;9.00;;
7703;SDS011;3894;49.700;10.770;2022-12-10T00:47:38;26.10;;;8.90;;
7703;SDS011;3894;49.700;10.770;2022-12-10T00:50:04;23.17;;;8.73;;
7703;SDS011;3894;49.700;10.770;2022-12-10T00:52:30;21.13;;;8.57;;
7703;SDS011;3894;49.700;10.770;2022-12-10T00:54:55;25.38;;;9.50;;
7703;SDS011;3894;49.700;10.770;2022-12-10T00:57:21;24.52;;;10.30;;
7703;SDS011;3894;49.700;10.770;2022-12-10T00:59:46;35.05;;;11.30;;
7703;SDS011;3894;49.700;10.770;2022-12-10T01:02:12;28.20;;;11.82;;
7703;SDS011;3894;49.700;10.770;2022-12-10T01:04:37;21.02;;;9.75;;
7703;SDS011;3894;49.700;10.770;2022-12-10T01:07:03;27.75;;;10.15;;
7703;SDS011;3894;49.700;10.770;2022-12-10T01:09:29;21.63;;;9.98;;
7703;SDS011;3894;49.700;10.770;2022-12-10T01:11:56;24.65;;;10.57;;
7703;SDS011;3894;49.700;10.770;2022-12-10T01:14:24;24.02;;;8.93;;
7703;SDS011;3894;49.700;10.770;2022-12-10T01:16:55;23.60;;;8.93;;
7703;SDS011;3894;49.700;10.770;2022-12-10T01:19:23;23.88;;;9.70;;
7703;SDS011;3894;49.700;10.770;2022-12-10T01:21:53;22.00;;;9.45;;
7703;SDS011;3894;49.700;10.770;2022-12-10T01:24:20;24.48;;;9.57;;
7703;SDS011;3894;49.700;10.770;2022-12-10T01:26:49;28.92;;;9.73;;
7703;SDS011;3894;49.700;10.770;2022-12-10T01:29:15;29.50;;;10.75;;
7703;SDS011;3894;49.700;10.770;2022-12-10T01:31:41;29.90;;;11.05;;
7703;SDS011;3894;49.700;10.770;2022-12-10T01:34:07;24.35;;;9.13;;
7703;SDS011;3894;49.700;10.770;2022-12-10T01:36:37;24.63;;;9.00;;
7703;SDS011;3894;49.700;10.770;2022-12-10T01:39:08;22.20;;;9.63;;
7703;SDS011;3894;49.700;10.770;2022-12-10T01:41:40;19.20;;;8.02;;
7703;SDS011;3894;49.700;10.770;2022-12-10T01:46:39;19.70;;;8.00;;
7703;SDS011;3894;49.700;10.770;2022-12-10T01:49:07;19.23;;;7.28;;
7703;SDS011;3894;49.700;10.770;2022-12-10T01:51:41;18.75;;;8.02;;
7703;SDS011;3894;49.700;10.770;2022-12-10T01:56:36;16.50;;;6.95;;
7703;SDS011;3894;49.700;10.770;2022-12-10T02:07:46;18.15;;;8.13;;
7703;SDS011;3894;49.700;10.770;2022-12-10T02:13:32;19.20;;;7.20;;
7703;SDS011;3894;49.700;10.770;2022-12-10T02:18:55;19.92;;;9.20;;
7703;SDS011;3894;49.700;10.770;2022-12-10T02:21:36;16.00;;;7.65;;
7703;SDS011;3894;49.700;10.770;2022-12-10T02:24:06;19.08;;;7.97;;
7703;SDS011;3894;49.700;10.770;2022-12-10T02:29:24;13.48;;;6.65;;
7703;SDS011;3894;49.700;10.770;2022-12-10T02:32:13;18.90;;;7.00;;
7703;SDS011;3894;49.700;10.770;2022-12-10T02:34:50;19.10;;;7.35;;
7703;SDS011;3894;49.700;10.770;2022-12-10T02:37:23;19.88;;;8.02;;
7703;SDS011;3894;49.700;10.770;2022-12-10T02:42:20;17.83;;;8.55;;
7703;SDS011;3894;49.700;10.770;2022-12-10T02:44:48;19.35;;;8.95;;
7703;SDS011;3894;49.700;10.770;2022-12-10T02:47:16;19.33;;;7.85;;
7703;SDS011;3894;49.700;10.770;2022-12-10T02:49:43;25.15;;;7.80;;
7703;SDS011;3894;49.700;10.770;2022-12-10T02:52:12;16.92;;;7.10;;
7703;SDS011;3894;49.700;10.770;2022-12-10T02:57:22;18.45;;;6.43;;
7703;SDS011;3894;49.700;10.770;2022-12-10T03:03:05;19.15;;;7.20;;
7703;SDS011;3894;49.700;10.770;2022-12-10T03:08:23;21.00;;;7.95;;
7703;SDS011;3894;49.700;10.770;2022-12-10T03:11:01;18.45;;;6.93;;
7703;SDS011;3894;49.700;10.770;2022-12-10T03:13:35;18.88;;;8.15;;
7703;SDS011;3894;49.700;10.770;2022-12-10T03:16:20;15.90;;;7.63;;
7703;SDS011;3894;49.700;10.770;2022-12-10T03:18:49;21.88;;;8.63;;
7703;SDS011;3894;49.700;10.770;2022-12-10T03:21:21;18.80;;;7.13;;
7703;SDS011;3894;49.700;10.770;2022-12-10T03:23:49;19.85;;;7.80;;
7703;SDS011;3894;49.700;10.770;2022-12-10T03:26:16;20.88;;;8.02;;
7703;SDS011;3894;49.700;10.770;2022-12-10T03:28:45;16.95;;;7.55;;
7703;SDS011;3894;49.700;10.770;2022-12-10T03:31:16;19.05;;;7.55;;
7703;SDS011;3894;49.700;10.770;2022-12-10T03:33:43;20.13;;;7.53;;
7703;SDS011;3894;49.700;10.770;2022-12-10T03:36:10;19.05;;;7.80;;
7703;SDS011;3894;49.700;10.770;2022-12-10T03:38:37;18.58;;;7.75;;
7703;SDS011;3894;49.700;10.770;2022-12-10T03:41:03;20.13;;;8.93;;
7703;SDS011;3894;49.700;10.770;2022-12-10T03:43:28;15.40;;;6.60;;
7703;SDS011;3894;49.700;10.770;2022-12-10T03:45:54;18.20;;;7.80;;
7703;SDS011;3894;49.700;10.770;2022-12-10T03:48:20;18.90;;;7.43;;
7703;SDS011;3894;49.700;10.770;2022-12-10T03:50:45;17.42;;;7.75;;
7703;SDS011;3894;49.700;10.770;2022-12-10T03:53:11;19.20;;;9.27;;
7703;SDS011;3894;49.700;10.770;2022-12-10T03:55:36;20.85;;;8.70;;
7703;SDS011;3894;49.700;10.770;2022-12-10T03:58:02;18.35;;;7.43;;
7703;SDS011;3894;49.700;10.770;2022-12-10T04:00:28;16.30;;;7.15;;
7703;SDS011;3894;49.700;10.770;2022-12-10T04:02:53;19.85;;;8.20;;
7703;SDS011;3894;49.700;10.770;2022-12-10T04:05:19;18.48;;;7.13;;
7703;SDS011;3894;49.700;10.770;2022-12-10T04:07:45;16.75;;;7.00;;
7703;SDS011;3894;49.700;10.770;2022-12-10T04:10:10;18.35;;;7.13;;
7703;SDS011;3894;49.700;10.770;2022-12-10T04:12:36;18.98;;;8.27;;
7703;SDS011;3894;49.700;10.770;2022-12-10T04:15:01;19.08;;;8.25;;
7703;SDS011;3894;49.700;10.770;2022-12-10T04:17:45;20.75;;;7.70;;
7703;SDS011;3894;49.700;10.770;2022-12-10T04:20:11;18.40;;;8.60;;
7703;SDS011;3894;49.700;10.770;2022-12-10T04:22:55;19.35;;;7.70;;
7703;SDS011;3894;49.700;10.770;2022-12-10T04:25:39;23.40;;;9.38;;
7703;SDS011;3894;49.700;10.770;2022-12-10T04:28:23;30.05;;;9.85;;
7703;SDS011;3894;49.700;10.770;2022-12-10T04:30:48;24.48;;;10.40;;
7703;SDS011;3894;49.700;10.770;2022-12-10T04:33:14;25.35;;;9.65;;
7703;SDS011;3894;49.700;10.770;2022-12-10T04:35:39;22.33;;;8.82;;
7703;SDS011;3894;49.700;10.770;2022-12-10T04:38:05;21.55;;;9.55;;
7703;SDS011;3894;49.700;10.770;2022-12-10T04:40:30;22.35;;;8.13;;
7703;SDS011;3894;49.700;10.770;2022-12-10T04:42:56;20.98;;;9.80;;
7703;SDS011;3894;49.700;10.770;2022-12-10T04:45:21;18.40;;;9.43;;
7703;SDS011;3894;49.700;10.770;2022-12-10T04:47:47;18.25;;;7.88;;
7703;SDS011;3894;49.700;10.770;2022-12-10T04:50:12;21.90;;;8.45;;
7703;SDS011;3894;49.700;10.770;2022-12-10T04:52:38;18.58;;;8.38;;
7703;SDS011;3894;49.700;10.770;2022-12-10T04:55:03;19.98;;;7.30;;
7703;SDS011;3894;49.700;10.770;2022-12-10T04:57:30;19.00;;;6.63;;
7703;SDS011;3894;49.700;10.770;2022-12-10T04:59:56;15.50;;;7.28;;
7703;SDS011;3894;49.700;10.770;2022-12-10T05:02:21;22.30;;;8.32;;
7703;SDS011;3894;49.700;10.770;2022-12-10T05:04:48;18.38;;;8.07;;
7703;SDS011;3894;49.700;10.770;2022-12-10T05:07:13;16.42;;;7.07;;
7703;SDS011;3894;49.700;10.770;2022-12-10T05:09:39;25.23;;;9.13;;
7703;SDS011;3894;49.700;10.770;2022-12-10T05:12:05;21.35;;;9.05;;
7703;SDS011;3894;49.700;10.770;2022-12-10T05:14:30;18.80;;;8.60;;
7703;SDS011;3894;49.700;10.770;2022-12-10T05:16:56;25.13;;;10.82;;
7703;SDS011;3894;49.700;10.770;2022-12-10T05:19:21;32.40;;;13.43;;
7703;SDS011;3894;49.700;10.770;2022-12-10T05:21:48;25.38;;;10.18;;
7703;SDS011;3894;49.700;10.770;2022-12-10T05:24:34;21.27;;;7.55;;
7703;SDS011;3894;49.700;10.770;2022-12-10T05:26:59;19.58;;;7.88;;
7703;SDS011;3894;49.700;10.770;2022-12-10T05:29:25;21.45;;;8.00;;
7703;SDS011;3894;49.700;10.770;2022-12-10T05:31:51;20.85;;;9.55;;
7703;SDS011;3894;49.700;10.770;2022-12-10T05:34:16;28.30;;;10.00;;
7703;SDS011;3894;49.700;10.770;2022-12-10T05:36:42;26.85;;;10.15;;
7703;SDS011;3894;49.700;10.770;2022-12-10T05:39:07;20.98;;;10.57;;
7703;SDS011;3894;49.700;10.770;2022-12-10T05:41:35;20.83;;;9.10;;
7703;SDS011;3894;49.700;10.770;2022-12-10T05:44:02;27.80;;;10.00;;
7703;SDS011;3894;49.700;10.770;2022-12-10T05:46:29;25.02;;;9.20;;
7703;SDS011;3894;49.700;10.770;2022-12-10T05:48:56;20.85;;;9.45;;
7703;SDS011;3894;49.700;10.770;2022-12-10T05:51:26;24.65;;;8.82;;
7703;SDS011;3894;49.700;10.770;2022-12-10T05:53:53;22.58;;;9.57;;
7703;SDS011;3894;49.700;10.770;2022-12-10T05:56:22;21.73;;;8.57;;
7703;SDS011;3894;49.700;10.770;2022-12-10T05:58:49;21.02;;;9.70;;
7703;SDS011;3894;49.700;10.770;2022-12-10T06:01:21;21.15;;;9.23;;
7703;SDS011;3894;49.700;10.770;2022-12-10T06:03:49;23.48;;;8.82;;
7703;SDS011;3894;49.700;10.770;2022-12-10T06:06:21;29.40;;;10.73;;
7703;SDS011;3894;49.700;10.770;2022-12-10T06:08:48;23.23;;;8.57;;
7703;SDS011;3894;49.700;10.770;2022-12-10T06:11:14;27.13;;;10.98;;
7703;SDS011;3894;49.700;10.770;2022-12-10T06:13:40;25.83;;;10.85;;
7703;SDS011;3894;49.700;10.770;2022-12-10T06:16:10;24.33;;;11.75;;
7703;SDS011;3894;49.700;10.770;2022-12-10T06:18:37;26.75;;;11.60;;
7703;SDS011;3894;49.700;10.770;2022-12-10T06:21:04;20.73;;;7.72;;
7703;SDS011;3894;49.700;10.770;2022-12-10T06:23:30;21.55;;;8.73;;
7703;SDS011;3894;49.700;10.770;2022-12-10T06:25:56;25.05;;;9.07;;
7703;SDS011;3894;49.700;10.770;2022-12-10T06:28:21;21.98;;;8.15;;
7703;SDS011;3894;49.700;10.770;2022-12-10T06:30:47;32.58;;;12.75;;
7703;SDS011;3894;49.700;10.770;2022-12-10T06:33:12;28.52;;;12.68;;
7703;SDS011;3894;49.700;10.770;2022-12-10T06:35:38;23.15;;;9.00;;
7703;SDS011;3894;49.700;10.770;2022-12-10T06:38:03;25.15;;;8.75;;
7703;SDS011;3894;49.700;10.770;2022-12-10T06:40:29;23.08;;;9.02;;
7703;SDS011;3894;49.700;10.770;2022-12-10T06:42:54;21.63;;;8.23;;
7703;SDS011;3894;49.700;10.770;2022-12-10T06:45:20;22.60;;;9.98;;
7703;SDS011;3894;49.700;10.770;2022-12-10T06:47:45;22.10;;;9.65;;
7703;SDS011;3894;49.700;10.770;2022-12-10T06:50:11;24.33;;;10.27;;
7703;SDS011;3894;49.700;10.770;2022-12-10T06:52:36;21.95;;;8.88;;
7703;SDS011;3894;49.700;10.770;2022-12-10T06:55:02;25.30;;;10.30;;
7703;SDS011;3894;49.700;10.770;2022-12-10T06:57:28;27.65;;;9.85;;
7703;SDS011;3894;49.700;10.770;2022-12-10T06:59:53;29.38;;;9.52;;
7703;SDS011;3894;49.700;10.770;2022-12-10T07:02:19;22.77;;;10.27;;
7703;SDS011;3894;49.700;10.770;2022-12-10T07:04:44;29.58;;;11.57;;
7703;SDS011;3894;49.700;10.770;2022-12-10T07:07:10;34.28;;;14.00;;
7703;SDS011;3894;49.700;10.770;2022-12-10T07:09:35;33.15;;;12.68;;
7703;SDS011;3894;49.700;10.770;2022-12-10T07:12:01;29.88;;;12.52;;
7703;SDS011;3894;49.700;10.770;2022-12-10T07:14:26;23.92;;;10.50;;
7703;SDS011;3894;49.700;10.770;2022-12-10T07:16:52;29.48;;;12.07;;
7703;SDS011;3894;49.700;10.770;2022-12-10T07:19:18;32.38;;;12.20;;
7703;SDS011;3894;49.700;10.770;2022-12-10T07:21:43;40.38;;;14.48;;
7703;SDS011;3894;49.700;10.770;2022-12-10T07:24:11;43.45;;;14.93;;
7703;SDS011;3894;49.700;10.770;2022-12-10T07:26:39;26.88;;;11.57;;
7703;SDS011;3894;49.700;10.770;2022-12-10T07:29:06;29.63;;;11.77;;
7703;SDS011;3894;49.700;10.770;2022-12-10T07:31:35;24.90;;;10.95;;
7703;SDS011;3894;49.700;10.770;2022-12-10T07:34:01;29.08;;;11.32;;
7703;SDS011;3894;49.700;10.770;2022-12-10T07:36:27;28.23;;;11.45;;
7703;SDS011;3894;49.700;10.770;2022-12-10T07:38:52;26.15;;;12.60;;
7703;SDS011;3894;49.700;10.770;2022-12-10T07:41:19;34.35;;;15.23;;
7703;SDS011;3894;49.700;10.770;2022-12-10T07:43:46;33.88;;;14.70;;
7703;SDS011;3894;49.700;10.770;2022-12-10T07:46:13;34.90;;;14.15;;
7703;SDS011;3894;49.700;10.770;2022-12-10T07:48:53;27.38;;;12.15;;
7703;SDS011;3894;49.700;10.770;2022-12-10T07:51:19;25.42;;;11.02;;
7703;SDS011;3894;49.700;10.770;2022-12-10T07:53:46;30.27;;;12.88;;
7703;SDS011;3894;49.700;10.770;2022-12-10T07:56:12;30.80;;;11.13;;
7703;SDS011;3894;49.700;10.770;2022-12-10T07:58:41;25.85;;;11.68;;
7703;SDS011;3894;49.700;10.770;2022-12-10T08:01:08;35.38;;;15.00;;
7703;SDS011;3894;49.700;10.770;2022-12-10T08:03:35;39.35;;;14.18;;
7703;SDS011;3894;49.700;10.770;2022-12-10T08:06:11;26.17;;;12.30;;
7703;SDS011;3894;49.700;10.770;2022-12-10T08:08:38;28.02;;;11.77;;
7703;SDS011;3894;49.700;10.770;2022-12-10T08:11:05;35.17;;;14.82;;
7703;SDS011;3894;49.700;10.770;2022-12-10T08:13:31;38.35;;;15.70;;
7703;SDS011;3894;49.700;10.770;2022-12-10T08:16:05;35.13;;;15.40;;
7703;SDS011;3894;49.700;10.770;2022-12-10T08:18:33;31.27;;;16.48;;
7703;SDS011;3894;49.700;10.770;2022-12-10T08:21:09;33.10;;;14.68;;
7703;SDS011;3894;49.700;10.770;2022-12-10T08:26:06;28.27;;;12.75;;
7703;SDS011;3894;49.700;10.770;2022-12-10T08:28:34;34.78;;;14.05;;
7703;SDS011;3894;49.700;10.770;2022-12-10T08:31:00;25.23;;;9.48;;
7703;SDS011;3894;49.700;10.770;2022-12-10T08:33:26;24.58;;;12.05;;
7703;SDS011;3894;49.700;10.770;2022-12-10T08:35:52;29.92;;;13.30;;
7703;SDS011;3894;49.700;10.770;2022-12-10T08:38:21;30.13;;;12.50;;
7703;SDS011;3894;49.700;10.770;2022-12-10T08:40:47;28.10;;;10.43;;
7703;SDS011;3894;49.700;10.770;2022-12-10T08:43:12;29.45;;;12.13;;
7703;SDS011;3894;49.700;10.770;2022-12-10T08:45:38;27.00;;;11.70;;
7703;SDS011;3894;49.700;10.770;2022-12-10T08:48:04;31.38;;;13.77;;
7703;SDS011;3894;49.700;10.770;2022-12-10T08:50:30;31.73;;;13.60;;
7703;SDS011;3894;49.700;10.770;2022-12-10T08:52:55;32.13;;;13.20;;
7703;SDS011;3894;49.700;10.770;2022-12-10T08:55:21;24.70;;;11.68;;
7703;SDS011;3894;49.700;10.770;2022-12-10T08:57:46;31.85;;;12.40;;
7703;SDS011;3894;49.700;10.770;2022-12-10T09:00:12;36.20;;;15.32;;
7703;SDS011;3894;49.700;10.770;2022-12-10T09:02:38;41.47;;;18.63;;
7703;SDS011;3894;49.700;10.770;2022-12-10T09:05:04;24.25;;;10.38;;
7703;SDS011;3894;49.700;10.770;2022-12-10T09:07:30;28.50;;;10.77;;
7703;SDS011;3894;49.700;10.770;2022-12-10T09:09:56;30.15;;;12.07;;
7703;SDS011;3894;49.700;10.770;2022-12-10T09:12:21;33.38;;;12.88;;
7703;SDS011;3894;49.700;10.770;2022-12-10T09:14:47;32.33;;;13.45;;
7703;SDS011;3894;49.700;10.770;2022-12-10T09:17:13;28.98;;;12.52;;
7703;SDS011;3894;49.700;10.770;2022-12-10T09:19:38;28.13;;;12.25;;
7703;SDS011;3894;49.700;10.770;2022-12-10T09:22:04;27.80;;;12.00;;
7703;SDS011;3894;49.700;10.770;2022-12-10T09:24:29;35.95;;;14.25;;
7703;SDS011;3894;49.700;10.770;2022-12-10T09:26:55;34.70;;;12.95;;
7703;SDS011;3894;49.700;10.770;2022-12-10T09:29:20;36.53;;;15.18;;
7703;SDS011;3894;49.700;10.770;2022-12-10T09:31:49;35.70;;;16.23;;
7703;SDS011;3894;49.700;10.770;2022-12-10T09:34:15;34.20;;;15.45;;
7703;SDS011;3894;49.700;10.770;2022-12-10T09:36:41;36.72;;;16.13;;
7703;SDS011;3894;49.700;10.770;2022-12-10T09:39:06;36.22;;;16.83;;
7703;SDS011;3894;49.700;10.770;2022-12-10T09:47:05;33.72;;;14.73;;
7703;SDS011;3894;49.700;10.770;2022-12-10T09:52:21;41.50;;;17.25;;
7703;SDS011;3894;49.700;10.770;2022-12-10T09:54:49;40.42;;;18.58;;
7703;SDS011;3894;49.700;10.770;2022-12-10T09:57:23;35.65;;;15.77;;
7703;SDS011;3894;49.700;10.770;2022-12-10T09:59:53;33.20;;;13.90;;
7703;SDS011;3894;49.700;10.770;2022-12-10T10:02:21;35.85;;;13.85;;
7703;SDS011;3894;49.700;10.770;2022-12-10T10:04:53;33.45;;;14.52;;
7703;SDS011;3894;49.700;10.770;2022-12-10T10:07:24;53.00;;;22.20;;
7703;SDS011;3894;49.700;10.770;2022-12-10T10:09:55;38.05;;;18.30;;
7703;SDS011;3894;49.700;10.770;2022-12-10T10:12:26;42.25;;;19.00;;
7703;SDS011;3894;49.700;10.770;2022-12-10T10:14:56;38.38;;;16.63;;
7703;SDS011;3894;49.700;10.770;2022-12-10T10:17:30;40.45;;;17.35;;
7703;SDS011;3894;49.700;10.770;2022-12-10T10:20:00;38.85;;;17.08;;
7703;SDS011;3894;49.700;10.770;2022-12-10T10:22:26;39.72;;;17.25;;
7703;SDS011;3894;49.700;10.770;2022-12-10T10:24:51;36.30;;;15.73;;
7703;SDS011;3894;49.700;10.770;2022-12-10T10:27:21;40.88;;;14.88;;
7703;SDS011;3894;49.700;10.770;2022-12-10T10:29:53;34.42;;;14.38;;
7703;SDS011;3894;49.700;10.770;2022-12-10T10:32:22;38.25;;;14.95;;
7703;SDS011;3894;49.700;10.770;2022-12-10T10:34:54;33.97;;;12.55;;
7703;SDS011;3894;49.700;10.770;2022-12-10T10:37:26;26.85;;;11.13;;
7703;SDS011;3894;49.700;10.770;2022-12-10T10:39:54;29.42;;;12.27;;
7703;SDS011;3894;49.700;10.770;2022-12-10T10:42:42;43.15;;;13.73;;
7703;SDS011;3894;49.700;10.770;2022-12-10T10:55:57;33.55;;;14.20;;
7703;SDS011;3894;49.700;10.770;2022-12-10T11:04:13;31.42;;;12.65;;
7703;SDS011;3894;49.700;10.770;2022-12-10T11:06:40;29.65;;;12.73;;
7703;SDS011;3894;49.700;10.770;2022-12-10T11:09:08;35.10;;;13.00;;
7703;SDS011;3894;49.700;10.770;2022-12-10T11:11:58;34.38;;;12.57;;
7703;SDS011;3894;49.700;10.770;2022-12-10T11:14:44;29.98;;;13.27;;
7703;SDS011;3894;49.700;10.770;2022-12-10T11:19:44;31.75;;;13.68;;
7703;SDS011;3894;49.700;10.770;2022-12-10T11:22:30;36.75;;;15.50;;
7703;SDS011;3894;49.700;10.770;2022-12-10T11:24:57;45.33;;;17.40;;
7703;SDS011;3894;49.700;10.770;2022-12-10T11:32:39;36.80;;;13.23;;
7703;SDS011;3894;49.700;10.770;2022-12-10T11:35:14;34.78;;;14.65;;
7703;SDS011;3894;49.700;10.770;2022-12-10T11:46:50;41.45;;;16.08;;
7703;SDS011;3894;49.700;10.770;2022-12-10T11:57:30;41.65;;;16.88;;
7703;SDS011;3894;49.700;10.770;2022-12-10T12:00:23;35.53;;;17.10;;
7703;SDS011;3894;49.700;10.770;2022-12-10T12:02:56;40.63;;;17.90;;
7703;SDS011;3894;49.700;10.770;2022-12-10T12:16:40;39.63;;;16.00;;
7703;SDS011;3894;49.700;10.770;2022-12-10T12:19:16;37.88;;;14.85;;
7703;SDS011;3894;49.700;10.770;2022-12-10T12:22:21;39.58;;;16.27;;
7703;SDS011;3894;49.700;10.770;2022-12-10T12:25:06;39.63;;;16.20;;
7703;SDS011;3894;49.700;10.770;2022-12-10T12:27:46;40.58;;;16.25;;
7703;SDS011;3894;49.700;10.770;2022-12-10T12:30:17;43.42;;;14.25;;
7703;SDS011;3894;49.700;10.770;2022-12-10T12:35:25;42.53;;;15.98;;
7703;SDS011;3894;49.700;10.770;2022-12-10T12:37:54;42.45;;;17.70;;
7703;SDS011;3894;49.700;10.770;2022-12-10T12:40:29;36.90;;;16.65;;
7703;SDS011;3894;49.700;10.770;2022-12-10T12:43:02;38.47;;;15.10;;
7703;SDS011;3894;49.700;10.770;2022-12-10T12:45:43;35.22;;;15.35;;
7703;SDS011;3894;49.700;10.770;2022-12-10T12:51:03;50.50;;;17.58;;
7703;SDS011;3894;49.700;10.770;2022-12-10T12:53:36;51.03;;;18.15;;
7703;SDS011;3894;49.700;10.770;2022-12-10T12:56:04;47.70;;;18.38;;
7703;SDS011;3894;49.700;10.770;2022-12-10T12:58:36;35.97;;;15.93;;
7703;SDS011;3894;49.700;10.770;2022-12-10T13:03:53;39.03;;;16.42;;
7703;SDS011;3894;49.700;10.770;2022-12-10T13:06:27;44.63;;;16.58;;
7703;SDS011;3894;49.700;10.770;2022-12-10T13:11:39;48.50;;;18.60;;
7703;SDS011;3894;49.700;10.770;2022-12-10T13:16:34;35.03;;;13.98;;
7703;SDS011;3894;49.700;10.770;2022-12-10T13:32:41;26.92;;;10.18;;
7703;SDS011;3894;49.700;10.770;2022-12-10T13:46:34;20.90;;;8.05;;
7703;SDS011;3894;49.700;10.770;2022-12-10T13:49:18;21.75;;;8.05;;
7703;SDS011;3894;49.700;10.770;2022-12-10T14:05:47;19.25;;;8.25;;
7703;SDS011;3894;49.700;10.770;2022-12-10T14:08:38;22.52;;;7.18;;
7703;SDS011;3894;49.700;10.770;2022-12-10T14:11:06;16.08;;;6.35;;
7703;SDS011;3894;49.700;10.770;2022-12-10T14:13:42;17.45;;;5.63;;
7703;SDS011;3894;49.700;10.770;2022-12-10T14:16:13;15.27;;;5.95;;
7703;SDS011;3894;49.700;10.770;2022-12-10T14:18:43;25.25;;;9.07;;
7703;SDS011;3894;49.700;10.770;2022-12-10T14:21:15;26.65;;;11.70;;
7703;SDS011;3894;49.700;10.770;2022-12-10T14:23:43;16.52;;;6.43;;
7703;SDS011;3894;49.700;10.770;2022-12-10T14:26:15;13.07;;;4.95;;
7703;SDS011;3894;49.700;10.770;2022-12-10T14:28:45;15.30;;;4.82;;
7703;SDS011;3894;49.700;10.770;2022-12-10T14:31:24;15.48;;;5.43;;
7703;SDS011;3894;49.700;10.770;2022-12-10T14:34:01;13.15;;;5.00;;
7703;SDS011;3894;49.700;10.770;2022-12-10T14:36:30;15.48;;;4.63;;
7703;SDS011;3894;49.700;10.770;2022-12-10T14:38:58;15.90;;;6.40;;
7703;SDS011;3894;49.700;10.770;2022-12-10T14:41:26;16.88;;;6.65;;
7703;SDS011;3894;49.700;10.770;2022-12-10T14:43:55;15.93;;;5.03;;
7703;SDS011;3894;49.700;10.770;2022-12-10T14:46:27;15.20;;;6.30;;
7703;SDS011;3894;49.700;10.770;2022-12-10T14:48:55;25.75;;;9.85;;
7703;SDS011;3894;49.700;10.770;2022-12-10T14:51:21;19.73;;;9.13;;
7703;SDS011;3894;49.700;10.770;2022-12-10T14:53:49;13.20;;;6.20;;
7703;SDS011;3894;49.700;10.770;2022-12-10T14:56:21;16.17;;;7.05;;
7703;SDS011;3894;49.700;10.770;2022-12-10T14:59:18;17.95;;;7.28;;
7703;SDS011;3894;49.700;10.770;2022-12-10T15:01:54;15.07;;;5.30;;
7703;SDS011;3894;49.700;10.770;2022-12-10T15:04:23;16.40;;;6.82;;
7703;SDS011;3894;49.700;10.770;2022-12-10T15:06:52;18.17;;;8.30;;
7703;SDS011;3894;49.700;10.770;2022-12-10T15:09:23;23.08;;;9.82;;
7703;SDS011;3894;49.700;10.770;2022-12-10T15:11:54;17.48;;;5.93;;
7703;SDS011;3894;49.700;10.770;2022-12-10T15:14:21;17.20;;;5.50;;
7703;SDS011;3894;49.700;10.770;2022-12-10T15:16:47;18.63;;;7.20;;
7703;SDS011;3894;49.700;10.770;2022-12-10T15:24:46;17.25;;;6.63;;
7703;SDS011;3894;49.700;10.770;2022-12-10T15:27:19;20.55;;;6.95;;
7703;SDS011;3894;49.700;10.770;2022-12-10T15:29:49;15.38;;;5.18;;
7703;SDS011;3894;49.700;10.770;2022-12-10T15:32:20;19.48;;;6.78;;
7703;SDS011;3894;49.700;10.770;2022-12-10T15:34:58;25.88;;;8.85;;
7703;SDS011;3894;49.700;10.770;2022-12-10T15:37:32;18.10;;;7.30;;
7703;SDS011;3894;49.700;10.770;2022-12-10T15:40:00;15.95;;;6.65;;
7703;SDS011;3894;49.700;10.770;2022-12-10T15:45:24;21.65;;;7.15;;
7703;SDS011;3894;49.700;10.770;2022-12-10T15:47:53;20.15;;;6.35;;
7703;SDS011;3894;49.700;10.770;2022-12-10T15:50:23;15.63;;;6.65;;
7703;SDS011;3894;49.700;10.770;2022-12-10T15:52:49;15.45;;;6.47;;
7703;SDS011;3894;49.700;10.770;2022-12-10T15:55:16;12.07;;;5.65;;
7703;SDS011;3894;49.700;10.770;2022-12-10T15:57:42;15.65;;;5.70;;
7703;SDS011;3894;49.700;10.770;2022-12-10T16:00:17;14.82;;;5.65;;
7703;SDS011;3894;49.700;10.770;2022-12-10T16:02:55;16.15;;;6.97;;
7703;SDS011;3894;49.700;10.770;2022-12-10T16:07:54;29.38;;;11.38;;
7703;SDS011;3894;49.700;10.770;2022-12-10T16:10:23;56.10;;;22.23;;
7703;SDS011;3894;49.700;10.770;2022-12-10T16:13:03;28.75;;;10.00;;
7703;SDS011;3894;49.700;10.770;2022-12-10T16:15:33;39.67;;;15.68;;
7703;SDS011;3894;49.700;10.770;2022-12-10T16:18:07;22.40;;;9.48;;
7703;SDS011;3894;49.700;10.770;2022-12-10T16:20:34;21.50;;;9.05;;
7703;SDS011;3894;49.700;10.770;2022-12-10T16:23:00;29.60;;;11.00;;
7703;SDS011;3894;49.700;10.770;2022-12-10T16:25:27;17.80;;;7.10;;
7703;SDS011;3894;49.700;10.770;2022-12-10T16:30:24;17.23;;;7.18;;
7703;SDS011;3894;49.700;10.770;2022-12-10T16:32:56;19.30;;;7.82;;
7703;SDS011;3894;49.700;10.770;2022-12-10T16:35:22;16.63;;;7.07;;
7703;SDS011;3894;49.700;10.770;2022-12-10T16:37:48;14.55;;;6.55;;
7703;SDS011;3894;49.700;10.770;2022-12-10T16:40:20;19.35;;;7.97;;
7703;SDS011;3894;49.700;10.770;2022-12-10T16:42:47;28.90;;;15.43;;
7703;SDS011;3894;49.700;10.770;2022-12-10T16:45:17;13.00;;;6.30;;
7703;SDS011;3894;49.700;10.770;2022-12-10T16:47:45;23.58;;;11.27;;
7703;SDS011;3894;49.700;10.770;2022-12-10T16:50:12;31.42;;;15.35;;
7703;SDS011;3894;49.700;10.770;2022-12-10T16:52:39;16.83;;;7.22;;
7703;SDS011;3894;49.700;10.770;2022-12-10T16:55:05;19.42;;;11.07;;
7703;SDS011;3894;49.700;10.770;2022-12-10T16:57:32;16.08;;;6.85;;
7703;SDS011;3894;49.700;10.770;2022-12-10T16:59:58;14.88;;;6.32;;
7703;SDS011;3894;49.700;10.770;2022-12-10T17:02:24;16.98;;;7.40;;
7703;SDS011;3894;49.700;10.770;2022-12-10T17:04:49;20.15;;;9.15;;
7703;SDS011;3894;49.700;10.770;2022-12-10T17:07:15;18.40;;;7.10;;
7703;SDS011;3894;49.700;10.770;2022-12-10T17:09:41;19.20;;;7.68;;
7703;SDS011;3894;49.700;10.770;2022-12-10T17:12:07;16.88;;;7.20;;
7703;SDS011;3894;49.700;10.770;2022-12-10T17:14:38;21.95;;;8.65;;
7703;SDS011;3894;49.700;10.770;2022-12-10T17:17:06;23.77;;;8.60;;
7703;SDS011;3894;49.700;10.770;2022-12-10T17:19:33;16.92;;;6.22;;
7703;SDS011;3894;49.700;10.770;2022-12-10T17:22:00;29.20;;;13.25;;
7703;SDS011;3894;49.700;10.770;2022-12-10T17:24:27;23.38;;;8.80;;
7703;SDS011;3894;49.700;10.770;2022-12-10T17:26:52;23.52;;;12.05;;
7703;SDS011;3894;49.700;10.770;2022-12-10T17:29:25;27.70;;;13.23;;
7703;SDS011;3894;49.700;10.770;2022-12-10T17:31:53;26.75;;;10.63;;
7703;SDS011;3894;49.700;10.770;2022-12-10T17:34:19;25.60;;;11.35;;